sensor_id;sensor_type;location;lat;lon;timestamp;P1;durP1;ratioP1;P2;durP2;ratioP2
27039;SDS011;14589;51.578;7.306;2023-04-06T05:01:38;8.27;;;3.97;;
27039;SDS011;14589;51.578;7.306;2023-04-06T05:04:09;10.00;;;4.10;;
27039;SDS011;14589;51.578;7.306;2023-04-06T05:06:40;10.90;;;4.13;;
27039;SDS011;14589;51.578;7.306;2023-04-06T05:09:11;10.32;;;4.15;;
27039;SDS011;14589;51.578;7.306;2023-04-06T05:11:45;12.40;;;4.25;;
27039;SDS011;14589;51.578;7.306;2023-04-06T05:14:15;11.63;;;4.82;;
27039;SDS011;14589;51.578;7.306;2023-04-06T05:16:47;11.90;;;3.65;;
27039;SDS011;14589;51.578;7.306;2023-04-06T05:19:18;11.68;;;5.20;;
27039;SDS011;14589;51.578;7.306;2023-04-06T05:21:49;11.00;;;4.57;;
27039;SDS011;14589;51.578;7.306;2023-04-06T05:24:20;14.15;;;4.70;;
27039;SDS011;14589;51.578;7.306;2023-04-06T05:26:52;9.38;;;4.43;;
27039;SDS011;14589;51.578;7.306;2023-04-06T05:29:26;11.98;;;5.68;;
27039;SDS011;14589;51.578;7.306;2023-04-06T05:31:57;7.50;;;4.00;;
27039;SDS011;14589;51.578;7.306;2023-04-06T05:34:29;9.93;;;4.10;;
27039;SDS011;14589;51.578;7.306;2023-04-06T05:37:01;10.25;;;3.75;;
27039;SDS011;14589;51.578;7.306;2023-04-06T05:39:31;9.85;;;4.47;;
27039;SDS011;14589;51.578;7.306;2023-04-06T05:42:04;8.75;;;3.90;;
27039;SDS011;14589;51.578;7.306;2023-04-06T05:44:50;10.27;;;4.60;;
27039;SDS011;14589;51.578;7.306;2023-04-06T05:47:24;9.13;;;4.07;;
27039;SDS011;14589;51.578;7.306;2023-04-06T05:50:03;9.13;;;4.47;;
27039;SDS011;14589;51.578;7.306;2023-04-06T05:52:40;12.15;;;3.88;;
27039;SDS011;14589;51.578;7.306;2023-04-06T05:55:15;7.95;;;4.07;;
27039;SDS011;14589;51.578;7.306;2023-04-06T05:57:50;12.65;;;3.80;;
27039;SDS011;14589;51.578;7.306;2023-04-06T06:00:22;12.60;;;4.03;;
27039;SDS011;14589;51.578;7.306;2023-04-06T06:03:03;12.35;;;5.18;;
27039;SDS011;14589;51.578;7.306;2023-04-06T06:05:35;9.73;;;5.20;;
27039;SDS011;14589;51.578;7.306;2023-04-06T06:08:21;13.35;;;5.55;;
27039;SDS011;14589;51.578;7.306;2023-04-06T06:10:54;11.80;;;4.43;;
27039;SDS011;14589;51.578;7.306;2023-04-06T06:13:27;9.60;;;5.57;;
27039;SDS011;14589;51.578;7.306;2023-04-06T06:15:59;14.50;;;7.03;;
27039;SDS011;14589;51.578;7.306;2023-04-06T06:18:35;11.45;;;4.22;;
27039;SDS011;14589;51.578;7.306;2023-04-06T06:21:07;11.77;;;5.75;;
27039;SDS011;14589;51.578;7.306;2023-04-06T06:23:38;10.60;;;4.90;;
27039;SDS011;14589;51.578;7.306;2023-04-06T06:26:10;10.20;;;5.70;;
27039;SDS011;14589;51.578;7.306;2023-04-06T06:28:41;12.93;;;5.13;;
27039;SDS011;14589;51.578;7.306;2023-04-06T06:31:13;12.27;;;5.35;;
27039;SDS011;14589;51.578;7.306;2023-04-06T06:33:44;13.07;;;5.45;;
27039;SDS011;14589;51.578;7.306;2023-04-06T06:36:15;10.40;;;5.63;;
27039;SDS011;14589;51.578;7.306;2023-04-06T06:38:47;13.18;;;6.20;;
27039;SDS011;14589;51.578;7.306;2023-04-06T06:41:21;12.00;;;5.82;;
27039;SDS011;14589;51.578;7.306;2023-04-06T06:43:52;10.23;;;5.95;;
27039;SDS011;14589;51.578;7.306;2023-04-06T06:46:23;10.23;;;4.80;;
27039;SDS011;14589;51.578;7.306;2023-04-06T06:48:54;10.27;;;5.43;;
27039;SDS011;14589;51.578;7.306;2023-04-06T06:51:25;11.50;;;5.20;;
27039;SDS011;14589;51.578;7.306;2023-04-06T06:53:56;11.65;;;4.78;;
27039;SDS011;14589;51.578;7.306;2023-04-06T06:56:27;10.35;;;4.60;;
27039;SDS011;14589;51.578;7.306;2023-04-06T06:58:58;8.55;;;4.10;;
27039;SDS011;14589;51.578;7.306;2023-04-06T07:01:28;6.13;;;2.72;;
27039;SDS011;14589;51.578;7.306;2023-04-06T07:03:59;7.85;;;3.30;;
27039;SDS011;14589;51.578;7.306;2023-04-06T07:06:30;7.32;;;3.53;;
27039;SDS011;14589;51.578;7.306;2023-04-06T07:09:00;6.28;;;2.58;;
27039;SDS011;14589;51.578;7.306;2023-04-06T07:11:33;8.57;;;3.10;;
27039;SDS011;14589;51.578;7.306;2023-04-06T07:14:03;7.22;;;3.55;;
27039;SDS011;14589;51.578;7.306;2023-04-06T07:16:33;6.88;;;4.00;;
27039;SDS011;14589;51.578;7.306;2023-04-06T07:19:04;7.03;;;3.92;;
27039;SDS011;14589;51.578;7.306;2023-04-06T07:21:34;6.90;;;2.70;;
27039;SDS011;14589;51.578;7.306;2023-04-06T07:24:05;8.00;;;3.22;;
27039;SDS011;14589;51.578;7.306;2023-04-06T07:26:36;5.60;;;2.58;;
27039;SDS011;14589;51.578;7.306;2023-04-06T07:29:08;6.72;;;3.72;;
27039;SDS011;14589;51.578;7.306;2023-04-06T07:31:39;6.90;;;2.47;;
27039;SDS011;14589;51.578;7.306;2023-04-06T07:34:10;5.75;;;3.15;;
27039;SDS011;14589;51.578;7.306;2023-04-06T07:36:42;7.15;;;4.05;;
27039;SDS011;14589;51.578;7.306;2023-04-06T07:39:13;8.57;;;3.63;;
27039;SDS011;14589;51.578;7.306;2023-04-06T07:41:44;6.75;;;2.65;;
27039;SDS011;14589;51.578;7.306;2023-04-06T07:44:15;5.50;;;2.65;;
27039;SDS011;14589;51.578;7.306;2023-04-06T07:46:45;7.40;;;3.35;;
27039;SDS011;14589;51.578;7.306;2023-04-06T07:49:16;10.25;;;4.32;;
27039;SDS011;14589;51.578;7.306;2023-04-06T07:51:47;7.68;;;3.33;;
27039;SDS011;14589;51.578;7.306;2023-04-06T07:54:17;7.85;;;2.90;;
27039;SDS011;14589;51.578;7.306;2023-04-06T07:56:48;8.38;;;3.90;;
27039;SDS011;14589;51.578;7.306;2023-04-06T07:59:19;7.90;;;3.33;;
27039;SDS011;14589;51.578;7.306;2023-04-06T08:01:50;8.38;;;3.75;;
27039;SDS011;14589;51.578;7.306;2023-04-06T08:04:20;5.80;;;3.25;;
27039;SDS011;14589;51.578;7.306;2023-04-06T08:06:50;9.48;;;4.03;;
27039;SDS011;14589;51.578;7.306;2023-04-06T08:09:21;9.57;;;2.92;;
27039;SDS011;14589;51.578;7.306;2023-04-06T08:11:51;9.10;;;3.88;;
27039;SDS011;14589;51.578;7.306;2023-04-06T08:14:21;7.70;;;4.28;;
27039;SDS011;14589;51.578;7.306;2023-04-06T08:16:52;8.05;;;3.80;;
27039;SDS011;14589;51.578;7.306;2023-04-06T08:19:22;7.43;;;3.60;;
27039;SDS011;14589;51.578;7.306;2023-04-06T08:21:53;9.27;;;4.65;;
27039;SDS011;14589;51.578;7.306;2023-04-06T08:24:23;7.57;;;3.70;;
27039;SDS011;14589;51.578;7.306;2023-04-06T08:26:54;10.18;;;4.40;;
27039;SDS011;14589;51.578;7.306;2023-04-06T08:29:24;7.72;;;4.00;;
27039;SDS011;14589;51.578;7.306;2023-04-06T08:31:55;8.57;;;4.20;;
27039;SDS011;14589;51.578;7.306;2023-04-06T08:34:25;7.68;;;3.55;;
27039;SDS011;14589;51.578;7.306;2023-04-06T08:36:56;9.05;;;4.57;;
27039;SDS011;14589;51.578;7.306;2023-04-06T08:39:27;9.10;;;4.75;;
27039;SDS011;14589;51.578;7.306;2023-04-06T08:41:58;9.07;;;5.13;;
27039;SDS011;14589;51.578;7.306;2023-04-06T08:44:30;7.20;;;4.05;;
27039;SDS011;14589;51.578;7.306;2023-04-06T08:49:35;7.82;;;4.07;;
27039;SDS011;14589;51.578;7.306;2023-04-06T08:52:07;7.97;;;4.15;;
27039;SDS011;14589;51.578;7.306;2023-04-06T08:54:38;10.68;;;4.53;;
27039;SDS011;14589;51.578;7.306;2023-04-06T08:57:08;10.40;;;4.90;;
27039;SDS011;14589;51.578;7.306;2023-04-06T08:59:39;6.95;;;4.45;;
27039;SDS011;14589;51.578;7.306;2023-04-06T09:02:11;10.75;;;6.13;;
27039;SDS011;14589;51.578;7.306;2023-04-06T09:04:52;10.55;;;4.25;;
27039;SDS011;14589;51.578;7.306;2023-04-06T09:07:24;10.23;;;5.35;;
27039;SDS011;14589;51.578;7.306;2023-04-06T09:09:54;9.65;;;4.70;;
27039;SDS011;14589;51.578;7.306;2023-04-06T09:12:26;10.93;;;4.97;;
27039;SDS011;14589;51.578;7.306;2023-04-06T09:14:58;9.38;;;4.95;;
27039;SDS011;14589;51.578;7.306;2023-04-06T09:17:30;8.40;;;4.63;;
27039;SDS011;14589;51.578;7.306;2023-04-06T09:20:04;9.10;;;4.15;;
27039;SDS011;14589;51.578;7.306;2023-04-06T09:22:39;10.80;;;5.40;;
27039;SDS011;14589;51.578;7.306;2023-04-06T09:25:17;8.68;;;4.75;;
27039;SDS011;14589;51.578;7.306;2023-04-06T09:27:58;11.02;;;5.25;;
27039;SDS011;14589;51.578;7.306;2023-04-06T09:30:30;13.18;;;5.35;;
27039;SDS011;14589;51.578;7.306;2023-04-06T09:33:00;9.93;;;5.63;;
27039;SDS011;14589;51.578;7.306;2023-04-06T09:35:31;12.32;;;6.38;;
27039;SDS011;14589;51.578;7.306;2023-04-06T09:38:09;11.48;;;6.22;;
27039;SDS011;14589;51.578;7.306;2023-04-06T09:40:50;11.25;;;4.88;;
27039;SDS011;14589;51.578;7.306;2023-04-06T09:43:25;11.93;;;5.85;;
27039;SDS011;14589;51.578;7.306;2023-04-06T09:45:57;9.20;;;5.40;;
27039;SDS011;14589;51.578;7.306;2023-04-06T09:48:30;10.45;;;6.43;;
27039;SDS011;14589;51.578;7.306;2023-04-06T09:51:03;9.68;;;4.80;;
27039;SDS011;14589;51.578;7.306;2023-04-06T09:53:35;11.27;;;5.00;;
27039;SDS011;14589;51.578;7.306;2023-04-06T09:56:10;10.60;;;4.95;;
27039;SDS011;14589;51.578;7.306;2023-04-06T09:58:43;9.70;;;5.63;;
27039;SDS011;14589;51.578;7.306;2023-04-06T10:01:17;10.75;;;5.50;;
27039;SDS011;14589;51.578;7.306;2023-04-06T10:06:47;8.43;;;4.25;;
27039;SDS011;14589;51.578;7.306;2023-04-06T10:09:23;9.57;;;4.57;;
27039;SDS011;14589;51.578;7.306;2023-04-06T10:11:57;8.23;;;4.10;;
27039;SDS011;14589;51.578;7.306;2023-04-06T10:14:28;10.68;;;4.95;;
27039;SDS011;14589;51.578;7.306;2023-04-06T10:16:59;12.23;;;6.75;;
27039;SDS011;14589;51.578;7.306;2023-04-06T10:19:34;10.07;;;4.85;;
27039;SDS011;14589;51.578;7.306;2023-04-06T10:22:05;12.95;;;6.35;;
27039;SDS011;14589;51.578;7.306;2023-04-06T10:24:39;10.60;;;5.82;;
27039;SDS011;14589;51.578;7.306;2023-04-06T10:27:09;11.27;;;6.18;;
27039;SDS011;14589;51.578;7.306;2023-04-06T10:29:45;11.10;;;5.75;;
27039;SDS011;14589;51.578;7.306;2023-04-06T10:32:18;15.38;;;6.53;;
27039;SDS011;14589;51.578;7.306;2023-04-06T10:34:49;11.27;;;6.15;;
27039;SDS011;14589;51.578;7.306;2023-04-06T10:37:19;15.90;;;6.63;;
27039;SDS011;14589;51.578;7.306;2023-04-06T10:39:53;11.30;;;5.72;;
27039;SDS011;14589;51.578;7.306;2023-04-06T10:42:35;10.50;;;6.15;;
27039;SDS011;14589;51.578;7.306;2023-04-06T10:45:07;10.32;;;6.38;;
27039;SDS011;14589;51.578;7.306;2023-04-06T10:47:49;11.63;;;5.57;;
27039;SDS011;14589;51.578;7.306;2023-04-06T10:50:22;10.25;;;5.65;;
27039;SDS011;14589;51.578;7.306;2023-04-06T10:52:59;15.57;;;7.57;;
27039;SDS011;14589;51.578;7.306;2023-04-06T10:55:31;11.07;;;6.28;;
27039;SDS011;14589;51.578;7.306;2023-04-06T10:58:01;11.93;;;5.03;;
27039;SDS011;14589;51.578;7.306;2023-04-06T11:00:32;15.40;;;6.70;;
27039;SDS011;14589;51.578;7.306;2023-04-06T11:03:02;12.43;;;7.18;;
27039;SDS011;14589;51.578;7.306;2023-04-06T11:05:33;12.70;;;7.05;;
27039;SDS011;14589;51.578;7.306;2023-04-06T11:08:03;11.68;;;6.90;;
27039;SDS011;14589;51.578;7.306;2023-04-06T11:10:34;10.27;;;5.45;;
27039;SDS011;14589;51.578;7.306;2023-04-06T11:13:04;12.20;;;5.88;;
27039;SDS011;14589;51.578;7.306;2023-04-06T11:15:35;13.73;;;5.75;;
27039;SDS011;14589;51.578;7.306;2023-04-06T11:18:06;11.65;;;5.53;;
27039;SDS011;14589;51.578;7.306;2023-04-06T11:20:36;10.00;;;5.75;;
27039;SDS011;14589;51.578;7.306;2023-04-06T11:23:06;9.63;;;4.97;;
27039;SDS011;14589;51.578;7.306;2023-04-06T11:25:37;11.05;;;5.97;;
27039;SDS011;14589;51.578;7.306;2023-04-06T11:28:07;11.13;;;4.95;;
27039;SDS011;14589;51.578;7.306;2023-04-06T11:30:38;12.45;;;6.00;;
27039;SDS011;14589;51.578;7.306;2023-04-06T11:33:08;9.60;;;5.93;;
27039;SDS011;14589;51.578;7.306;2023-04-06T11:35:38;13.25;;;6.30;;
27039;SDS011;14589;51.578;7.306;2023-04-06T11:38:09;13.15;;;7.15;;
27039;SDS011;14589;51.578;7.306;2023-04-06T11:40:39;16.23;;;7.72;;
27039;SDS011;14589;51.578;7.306;2023-04-06T11:43:13;14.57;;;7.13;;
27039;SDS011;14589;51.578;7.306;2023-04-06T11:45:43;13.57;;;6.70;;
27039;SDS011;14589;51.578;7.306;2023-04-06T11:48:17;15.32;;;7.88;;
27039;SDS011;14589;51.578;7.306;2023-04-06T11:50:54;13.32;;;6.95;;
27039;SDS011;14589;51.578;7.306;2023-04-06T11:53:26;12.15;;;6.97;;
27039;SDS011;14589;51.578;7.306;2023-04-06T11:56:00;13.60;;;7.72;;
27039;SDS011;14589;51.578;7.306;2023-04-06T11:58:30;14.55;;;7.13;;
27039;SDS011;14589;51.578;7.306;2023-04-06T12:01:04;13.85;;;7.80;;
27039;SDS011;14589;51.578;7.306;2023-04-06T12:03:34;16.52;;;8.70;;
27039;SDS011;14589;51.578;7.306;2023-04-06T12:06:05;15.07;;;7.53;;
27039;SDS011;14589;51.578;7.306;2023-04-06T12:08:35;15.80;;;8.18;;
27039;SDS011;14589;51.578;7.306;2023-04-06T12:11:06;9.60;;;5.68;;
27039;SDS011;14589;51.578;7.306;2023-04-06T12:13:36;15.38;;;7.20;;
27039;SDS011;14589;51.578;7.306;2023-04-06T12:16:07;12.73;;;8.00;;
27039;SDS011;14589;51.578;7.306;2023-04-06T12:18:38;12.77;;;8.45;;
27039;SDS011;14589;51.578;7.306;2023-04-06T12:21:08;13.30;;;7.45;;
27039;SDS011;14589;51.578;7.306;2023-04-06T12:23:38;13.52;;;7.50;;
27039;SDS011;14589;51.578;7.306;2023-04-06T12:26:09;16.15;;;8.48;;
27039;SDS011;14589;51.578;7.306;2023-04-06T12:28:39;20.08;;;10.55;;
27039;SDS011;14589;51.578;7.306;2023-04-06T12:31:20;14.93;;;9.20;;
27039;SDS011;14589;51.578;7.306;2023-04-06T12:33:51;12.63;;;6.50;;
27039;SDS011;14589;51.578;7.306;2023-04-06T12:36:22;15.10;;;8.95;;
27039;SDS011;14589;51.578;7.306;2023-04-06T12:38:52;10.68;;;5.68;;
27039;SDS011;14589;51.578;7.306;2023-04-06T12:41:23;13.60;;;6.07;;
27039;SDS011;14589;51.578;7.306;2023-04-06T12:43:54;16.35;;;7.10;;
27039;SDS011;14589;51.578;7.306;2023-04-06T12:46:25;15.30;;;8.55;;
27039;SDS011;14589;51.578;7.306;2023-04-06T12:48:56;14.13;;;7.15;;
27039;SDS011;14589;51.578;7.306;2023-04-06T12:51:27;11.60;;;6.07;;
27039;SDS011;14589;51.578;7.306;2023-04-06T12:53:58;16.73;;;10.68;;
27039;SDS011;14589;51.578;7.306;2023-04-06T12:56:28;12.82;;;6.88;;
27039;SDS011;14589;51.578;7.306;2023-04-06T12:58:58;15.82;;;9.00;;
27039;SDS011;14589;51.578;7.306;2023-04-06T13:01:29;9.43;;;5.05;;
27039;SDS011;14589;51.578;7.306;2023-04-06T13:03:59;11.35;;;6.35;;
27039;SDS011;14589;51.578;7.306;2023-04-06T13:06:30;10.30;;;5.47;;
27039;SDS011;14589;51.578;7.306;2023-04-06T13:09:00;10.75;;;5.90;;
27039;SDS011;14589;51.578;7.306;2023-04-06T13:11:31;14.43;;;7.32;;
27039;SDS011;14589;51.578;7.306;2023-04-06T13:14:01;11.95;;;7.07;;
27039;SDS011;14589;51.578;7.306;2023-04-06T13:16:31;10.75;;;5.85;;
27039;SDS011;14589;51.578;7.306;2023-04-06T13:19:02;12.60;;;6.78;;
27039;SDS011;14589;51.578;7.306;2023-04-06T13:21:32;12.75;;;6.00;;
27039;SDS011;14589;51.578;7.306;2023-04-06T13:24:03;11.95;;;5.78;;
27039;SDS011;14589;51.578;7.306;2023-04-06T13:26:35;10.40;;;6.25;;
27039;SDS011;14589;51.578;7.306;2023-04-06T13:29:06;14.60;;;7.07;;
27039;SDS011;14589;51.578;7.306;2023-04-06T13:31:37;12.10;;;6.60;;
27039;SDS011;14589;51.578;7.306;2023-04-06T13:34:08;17.75;;;6.85;;
27039;SDS011;14589;51.578;7.306;2023-04-06T13:36:39;20.05;;;9.18;;
27039;SDS011;14589;51.578;7.306;2023-04-06T13:39:11;16.60;;;8.35;;
27039;SDS011;14589;51.578;7.306;2023-04-06T13:41:42;11.20;;;5.38;;
27039;SDS011;14589;51.578;7.306;2023-04-06T13:44:12;11.95;;;4.93;;
27039;SDS011;14589;51.578;7.306;2023-04-06T13:46:42;13.88;;;6.30;;
27039;SDS011;14589;51.578;7.306;2023-04-06T13:49:13;14.73;;;6.75;;
27039;SDS011;14589;51.578;7.306;2023-04-06T13:51:44;14.90;;;6.90;;
27039;SDS011;14589;51.578;7.306;2023-04-06T13:54:14;12.25;;;4.32;;
27039;SDS011;14589;51.578;7.306;2023-04-06T13:56:44;7.35;;;3.80;;
27039;SDS011;14589;51.578;7.306;2023-04-06T13:59:15;9.68;;;5.45;;
27039;SDS011;14589;51.578;7.306;2023-04-06T14:01:45;11.18;;;5.90;;
27039;SDS011;14589;51.578;7.306;2023-04-06T14:04:16;7.90;;;4.05;;
27039;SDS011;14589;51.578;7.306;2023-04-06T14:06:46;9.73;;;4.63;;
27039;SDS011;14589;51.578;7.306;2023-04-06T14:09:16;11.77;;;4.93;;
27039;SDS011;14589;51.578;7.306;2023-04-06T14:11:47;10.32;;;5.80;;
27039;SDS011;14589;51.578;7.306;2023-04-06T14:14:17;7.97;;;3.58;;
27039;SDS011;14589;51.578;7.306;2023-04-06T14:16:48;9.55;;;4.65;;
27039;SDS011;14589;51.578;7.306;2023-04-06T14:19:19;11.15;;;5.30;;
27039;SDS011;14589;51.578;7.306;2023-04-06T14:21:53;12.23;;;6.18;;
27039;SDS011;14589;51.578;7.306;2023-04-06T14:24:23;10.70;;;4.88;;
27039;SDS011;14589;51.578;7.306;2023-04-06T14:26:53;9.63;;;4.55;;
27039;SDS011;14589;51.578;7.306;2023-04-06T14:29:24;11.25;;;6.15;;
27039;SDS011;14589;51.578;7.306;2023-04-06T14:31:54;10.40;;;6.20;;
27039;SDS011;14589;51.578;7.306;2023-04-06T14:34:29;11.98;;;6.70;;
27039;SDS011;14589;51.578;7.306;2023-04-06T14:37:00;10.90;;;6.00;;
27039;SDS011;14589;51.578;7.306;2023-04-06T14:39:30;10.98;;;6.55;;
27039;SDS011;14589;51.578;7.306;2023-04-06T14:42:00;11.80;;;6.00;;
27039;SDS011;14589;51.578;7.306;2023-04-06T14:44:32;11.13;;;6.20;;
27039;SDS011;14589;51.578;7.306;2023-04-06T14:47:04;12.68;;;6.40;;
27039;SDS011;14589;51.578;7.306;2023-04-06T14:49:35;12.68;;;5.28;;
27039;SDS011;14589;51.578;7.306;2023-04-06T14:52:05;11.70;;;5.85;;
27039;SDS011;14589;51.578;7.306;2023-04-06T14:54:36;16.45;;;8.55;;
27039;SDS011;14589;51.578;7.306;2023-04-06T14:57:06;11.90;;;6.03;;
27039;SDS011;14589;51.578;7.306;2023-04-06T14:59:36;11.38;;;6.05;;
27039;SDS011;14589;51.578;7.306;2023-04-06T15:02:07;8.60;;;4.45;;
27039;SDS011;14589;51.578;7.306;2023-04-06T15:04:38;9.65;;;4.40;;
27039;SDS011;14589;51.578;7.306;2023-04-06T15:07:09;13.75;;;6.85;;
27039;SDS011;14589;51.578;7.306;2023-04-06T15:09:40;12.43;;;6.45;;
27039;SDS011;14589;51.578;7.306;2023-04-06T15:12:11;11.95;;;5.65;;
27039;SDS011;14589;51.578;7.306;2023-04-06T15:14:41;14.32;;;6.07;;
27039;SDS011;14589;51.578;7.306;2023-04-06T15:17:11;9.55;;;4.68;;
27039;SDS011;14589;51.578;7.306;2023-04-06T15:19:42;9.48;;;5.07;;
27039;SDS011;14589;51.578;7.306;2023-04-06T15:22:12;11.45;;;5.28;;
27039;SDS011;14589;51.578;7.306;2023-04-06T15:24:42;9.15;;;5.07;;
27039;SDS011;14589;51.578;7.306;2023-04-06T15:27:13;10.90;;;5.07;;
27039;SDS011;14589;51.578;7.306;2023-04-06T15:29:43;13.00;;;6.70;;
27039;SDS011;14589;51.578;7.306;2023-04-06T15:32:14;10.70;;;4.25;;
27039;SDS011;14589;51.578;7.306;2023-04-06T15:34:44;11.10;;;5.32;;
27039;SDS011;14589;51.578;7.306;2023-04-06T15:37:15;10.82;;;4.72;;
27039;SDS011;14589;51.578;7.306;2023-04-06T15:39:45;11.40;;;5.97;;
27039;SDS011;14589;51.578;7.306;2023-04-06T15:42:15;12.07;;;5.88;;
27039;SDS011;14589;51.578;7.306;2023-04-06T15:44:46;11.73;;;7.13;;
27039;SDS011;14589;51.578;7.306;2023-04-06T15:47:16;10.20;;;5.30;;
27039;SDS011;14589;51.578;7.306;2023-04-06T15:49:47;12.27;;;5.75;;
27039;SDS011;14589;51.578;7.306;2023-04-06T15:52:17;9.88;;;4.90;;
27039;SDS011;14589;51.578;7.306;2023-04-06T15:54:48;6.97;;;3.83;;
27039;SDS011;14589;51.578;7.306;2023-04-06T15:57:18;9.80;;;4.50;;
27039;SDS011;14589;51.578;7.306;2023-04-06T15:59:49;10.88;;;5.65;;
27039;SDS011;14589;51.578;7.306;2023-04-06T16:02:20;8.75;;;5.32;;
27039;SDS011;14589;51.578;7.306;2023-04-06T16:04:56;7.65;;;4.03;;
27039;SDS011;14589;51.578;7.306;2023-04-06T16:07:27;7.57;;;3.92;;
27039;SDS011;14589;51.578;7.306;2023-04-06T16:09:58;7.47;;;3.75;;
27039;SDS011;14589;51.578;7.306;2023-04-06T16:12:28;8.35;;;4.07;;
27039;SDS011;14589;51.578;7.306;2023-04-06T16:14:58;10.43;;;4.00;;
27039;SDS011;14589;51.578;7.306;2023-04-06T16:17:29;9.65;;;3.35;;
27039;SDS011;14589;51.578;7.306;2023-04-06T16:19:59;7.93;;;4.05;;
27039;SDS011;14589;51.578;7.306;2023-04-06T16:22:30;9.23;;;2.67;;
27039;SDS011;14589;51.578;7.306;2023-04-06T16:25:01;7.53;;;3.25;;
27039;SDS011;14589;51.578;7.306;2023-04-06T16:27:32;6.53;;;3.17;;
27039;SDS011;14589;51.578;7.306;2023-04-06T16:30:03;10.80;;;4.38;;
27039;SDS011;14589;51.578;7.306;2023-04-06T16:32:34;5.70;;;2.80;;
27039;SDS011;14589;51.578;7.306;2023-04-06T16:35:04;5.93;;;2.65;;
27039;SDS011;14589;51.578;7.306;2023-04-06T16:37:35;8.95;;;3.08;;
27039;SDS011;14589;51.578;7.306;2023-04-06T16:40:06;5.65;;;3.22;;
27039;SDS011;14589;51.578;7.306;2023-04-06T16:42:37;9.35;;;2.70;;
27039;SDS011;14589;51.578;7.306;2023-04-06T16:45:08;6.63;;;2.42;;
27039;SDS011;14589;51.578;7.306;2023-04-06T16:47:38;5.97;;;2.35;;
27039;SDS011;14589;51.578;7.306;2023-04-06T16:50:09;4.95;;;2.83;;
27039;SDS011;14589;51.578;7.306;2023-04-06T16:52:39;7.40;;;3.25;;
27039;SDS011;14589;51.578;7.306;2023-04-06T16:55:10;6.45;;;2.65;;
27039;SDS011;14589;51.578;7.306;2023-04-06T16:57:41;6.95;;;2.65;;
27039;SDS011;14589;51.578;7.306;2023-04-06T17:00:11;5.88;;;3.15;;
27039;SDS011;14589;51.578;7.306;2023-04-06T17:02:45;6.72;;;2.85;;
27039;SDS011;14589;51.578;7.306;2023-04-06T17:05:16;6.97;;;2.92;;
27039;SDS011;14589;51.578;7.306;2023-04-06T17:07:51;7.80;;;2.80;;
27039;SDS011;14589;51.578;7.306;2023-04-06T17:10:22;8.93;;;2.95;;
27039;SDS011;14589;51.578;7.306;2023-04-06T17:12:52;8.13;;;3.83;;
27039;SDS011;14589;51.578;7.306;2023-04-06T17:15:22;8.07;;;4.03;;
27039;SDS011;14589;51.578;7.306;2023-04-06T17:17:57;5.57;;;3.10;;
27039;SDS011;14589;51.578;7.306;2023-04-06T17:20:27;7.63;;;3.47;;
27039;SDS011;14589;51.578;7.306;2023-04-06T17:22:58;5.47;;;1.98;;
27039;SDS011;14589;51.578;7.306;2023-04-06T17:25:28;5.60;;;3.58;;
27039;SDS011;14589;51.578;7.306;2023-04-06T17:27:58;4.93;;;2.47;;
27039;SDS011;14589;51.578;7.306;2023-04-06T17:30:28;6.10;;;2.97;;
27039;SDS011;14589;51.578;7.306;2023-04-06T17:32:59;6.22;;;2.40;;
27039;SDS011;14589;51.578;7.306;2023-04-06T17:35:30;5.35;;;2.03;;
27039;SDS011;14589;51.578;7.306;2023-04-06T17:38:01;5.20;;;2.45;;
27039;SDS011;14589;51.578;7.306;2023-04-06T17:40:31;6.10;;;3.03;;
27039;SDS011;14589;51.578;7.306;2023-04-06T17:43:03;6.38;;;2.38;;
27039;SDS011;14589;51.578;7.306;2023-04-06T17:45:34;6.57;;;2.40;;
27039;SDS011;14589;51.578;7.306;2023-04-06T17:48:04;5.35;;;2.83;;
27039;SDS011;14589;51.578;7.306;2023-04-06T17:50:37;5.57;;;2.83;;
27039;SDS011;14589;51.578;7.306;2023-04-06T17:53:08;6.63;;;3.55;;
27039;SDS011;14589;51.578;7.306;2023-04-06T17:55:39;5.75;;;3.80;;
27039;SDS011;14589;51.578;7.306;2023-04-06T17:58:09;5.78;;;2.30;;
27039;SDS011;14589;51.578;7.306;2023-04-06T18:00:40;6.65;;;2.65;;
27039;SDS011;14589;51.578;7.306;2023-04-06T18:03:10;5.57;;;2.28;;
27039;SDS011;14589;51.578;7.306;2023-04-06T18:05:41;7.15;;;3.88;;
27039;SDS011;14589;51.578;7.306;2023-04-06T18:08:11;6.90;;;3.45;;
27039;SDS011;14589;51.578;7.306;2023-04-06T18:10:43;7.10;;;3.15;;
27039;SDS011;14589;51.578;7.306;2023-04-06T18:13:15;6.30;;;2.38;;
27039;SDS011;14589;51.578;7.306;2023-04-06T18:15:46;6.10;;;2.28;;
27039;SDS011;14589;51.578;7.306;2023-04-06T18:18:16;4.50;;;1.95;;
27039;SDS011;14589;51.578;7.306;2023-04-06T18:20:46;7.13;;;3.08;;
27039;SDS011;14589;51.578;7.306;2023-04-06T18:23:17;6.68;;;2.15;;
27039;SDS011;14589;51.578;7.306;2023-04-06T18:25:47;6.30;;;2.40;;
27039;SDS011;14589;51.578;7.306;2023-04-06T18:28:17;5.20;;;2.30;;
27039;SDS011;14589;51.578;7.306;2023-04-06T18:30:47;5.70;;;3.25;;
27039;SDS011;14589;51.578;7.306;2023-04-06T18:33:18;4.90;;;2.50;;
27039;SDS011;14589;51.578;7.306;2023-04-06T18:35:48;4.05;;;2.00;;
27039;SDS011;14589;51.578;7.306;2023-04-06T18:38:19;4.35;;;2.08;;
27039;SDS011;14589;51.578;7.306;2023-04-06T18:40:49;6.28;;;3.30;;
27039;SDS011;14589;51.578;7.306;2023-04-06T18:43:20;9.13;;;3.70;;
27039;SDS011;14589;51.578;7.306;2023-04-06T18:45:51;6.72;;;2.45;;
27039;SDS011;14589;51.578;7.306;2023-04-06T18:48:21;7.85;;;3.70;;
27039;SDS011;14589;51.578;7.306;2023-04-06T18:50:52;6.35;;;2.80;;
27039;SDS011;14589;51.578;7.306;2023-04-06T18:53:24;5.97;;;2.35;;
27039;SDS011;14589;51.578;7.306;2023-04-06T18:55:57;6.05;;;2.50;;
27039;SDS011;14589;51.578;7.306;2023-04-06T18:58:32;6.28;;;3.03;;
27039;SDS011;14589;51.578;7.306;2023-04-06T19:01:02;5.47;;;2.88;;
27039;SDS011;14589;51.578;7.306;2023-04-06T19:03:33;5.57;;;3.05;;
27039;SDS011;14589;51.578;7.306;2023-04-06T19:06:05;6.50;;;2.38;;
27039;SDS011;14589;51.578;7.306;2023-04-06T19:08:38;4.97;;;2.63;;
27039;SDS011;14589;51.578;7.306;2023-04-06T19:11:09;6.28;;;2.50;;
27039;SDS011;14589;51.578;7.306;2023-04-06T19:13:40;5.50;;;2.47;;
27039;SDS011;14589;51.578;7.306;2023-04-06T19:16:15;6.82;;;2.55;;
27039;SDS011;14589;51.578;7.306;2023-04-06T19:18:46;5.07;;;2.30;;
27039;SDS011;14589;51.578;7.306;2023-04-06T19:21:17;6.30;;;3.78;;
27039;SDS011;14589;51.578;7.306;2023-04-06T19:23:49;6.70;;;3.67;;
27039;SDS011;14589;51.578;7.306;2023-04-06T19:28:52;6.45;;;3.30;;
27039;SDS011;14589;51.578;7.306;2023-04-06T19:31:23;6.55;;;2.55;;
27039;SDS011;14589;51.578;7.306;2023-04-06T19:33:55;6.78;;;3.22;;
27039;SDS011;14589;51.578;7.306;2023-04-06T19:36:26;7.97;;;3.38;;
27039;SDS011;14589;51.578;7.306;2023-04-06T19:38:57;6.22;;;2.78;;
27039;SDS011;14589;51.578;7.306;2023-04-06T19:41:28;7.53;;;3.17;;
27039;SDS011;14589;51.578;7.306;2023-04-06T19:43:58;6.28;;;3.33;;
27039;SDS011;14589;51.578;7.306;2023-04-06T19:46:29;5.22;;;2.67;;
27039;SDS011;14589;51.578;7.306;2023-04-06T19:48:59;5.47;;;2.78;;
27039;SDS011;14589;51.578;7.306;2023-04-06T19:51:31;5.05;;;3.00;;
27039;SDS011;14589;51.578;7.306;2023-04-06T19:54:03;7.03;;;3.40;;
27039;SDS011;14589;51.578;7.306;2023-04-06T19:56:34;5.80;;;3.15;;
27039;SDS011;14589;51.578;7.306;2023-04-06T19:59:04;9.45;;;3.60;;
27039;SDS011;14589;51.578;7.306;2023-04-06T20:01:36;4.70;;;2.47;;
27039;SDS011;14589;51.578;7.306;2023-04-06T20:04:06;5.80;;;3.03;;
27039;SDS011;14589;51.578;7.306;2023-04-06T20:06:37;6.28;;;3.35;;
27039;SDS011;14589;51.578;7.306;2023-04-06T20:09:07;7.13;;;3.83;;
27039;SDS011;14589;51.578;7.306;2023-04-06T20:11:38;6.03;;;2.80;;
27039;SDS011;14589;51.578;7.306;2023-04-06T20:14:08;6.10;;;3.13;;